createdAt,value
2024-05-09T00:00:39.714Z,10.52
2024-05-09T00:01:36.578Z,10.51
2024-05-09T00:02:36.623Z,10.50
2024-05-09T00:03:36.712Z,10.49
2024-05-09T00:04:36.846Z,10.48
2024-05-09T00:05:37.246Z,10.47
2024-05-09T00:06:36.925Z,10.46
2024-05-09T00:07:37.014Z,10.45
2024-05-09T00:08:37.215Z,10.43
2024-05-09T00:09:37.207Z,10.42
2024-05-09T00:10:39.094Z,10.41
2024-05-09T00:11:37.427Z,10.41
2024-05-09T00:12:37.414Z,10.40
2024-05-09T00:13:37.507Z,10.39
2024-05-09T00:14:37.673Z,10.38
2024-05-09T00:15:37.729Z,10.37
2024-05-09T00:16:37.787Z,10.37
2024-05-09T00:17:38.053Z,10.36
2024-05-09T00:18:38.002Z,10.36
2024-05-09T00:19:38.079Z,10.35
2024-05-09T00:20:40.757Z,10.34
2024-05-09T00:21:38.223Z,10.34
2024-05-09T00:22:38.284Z,10.33
2024-05-09T00:23:38.487Z,10.33
2024-05-09T00:24:38.456Z,10.33
2024-05-09T00:25:38.565Z,10.33
2024-05-09T00:26:38.716Z,10.33
2024-05-09T00:27:38.708Z,10.33
2024-05-09T00:28:38.793Z,10.33
2024-05-09T00:29:38.922Z,10.33
2024-05-09T00:30:38.982Z,10.33
2024-05-09T00:31:39.031Z,10.33
2024-05-09T00:32:39.268Z,10.32
2024-05-09T00:33:39.339Z,10.32
2024-05-09T00:34:39.271Z,10.31
2024-05-09T00:35:39.622Z,10.31
2024-05-09T00:36:39.402Z,10.31
2024-05-09T00:37:39.487Z,10.30
2024-05-09T00:38:39.608Z,10.30
2024-05-09T00:39:39.683Z,10.30
2024-05-09T00:40:42.256Z,10.29
2024-05-09T00:41:39.890Z,10.28
2024-05-09T00:42:39.910Z,10.28
2024-05-09T00:43:39.986Z,10.27
2024-05-09T00:44:40.069Z,10.27
2024-05-09T00:45:40.183Z,10.26
2024-05-09T00:46:40.210Z,10.25
2024-05-09T00:47:40.534Z,10.24
2024-05-09T00:48:40.545Z,10.23
2024-05-09T00:49:40.542Z,10.22
2024-05-09T00:50:41.426Z,10.21
2024-05-09T00:51:40.574Z,10.20
2024-05-09T00:52:40.660Z,10.19
2024-05-09T00:53:40.803Z,10.18
2024-05-09T00:54:40.806Z,10.17
2024-05-09T00:55:40.940Z,10.16
2024-05-09T00:56:41.004Z,10.15
2024-05-09T00:57:41.029Z,10.14
2024-05-09T00:58:41.118Z,10.13
2024-05-09T00:59:41.248Z,10.12
2024-05-09T01:00:41.884Z,10.12
2024-05-09T01:01:41.535Z,10.11
2024-05-09T01:02:41.585Z,10.10
2024-05-09T01:03:41.714Z,10.10
2024-05-09T01:04:41.746Z,10.10
2024-05-09T01:05:42.167Z,10.09
2024-05-09T01:06:41.819Z,10.09
2024-05-09T01:07:41.932Z,10.08
2024-05-09T01:08:42.010Z,10.07
2024-05-09T01:09:42.065Z,10.07
2024-05-09T01:10:44.878Z,10.06
2024-05-09T01:11:42.344Z,10.04
2024-05-09T01:12:42.295Z,10.03
2024-05-09T01:13:42.436Z,10.02
2024-05-09T01:14:42.465Z,10.02
2024-05-09T01:15:42.527Z,10.01
2024-05-09T01:16:42.654Z,10.01
2024-05-09T01:17:42.819Z,10.00
2024-05-09T01:18:42.886Z,9.99
2024-05-09T01:19:42.958Z,9.98
2024-05-09T01:20:44.879Z,9.97
2024-05-09T01:21:42.936Z,9.96
2024-05-09T01:22:43.128Z,9.95
2024-05-09T01:23:43.130Z,9.94
2024-05-09T01:24:43.212Z,9.93
2024-05-09T01:25:43.492Z,9.91
2024-05-09T01:26:43.347Z,9.90
2024-05-09T01:27:43.432Z,9.89
2024-05-09T01:28:43.531Z,9.88
2024-05-09T01:29:43.576Z,9.87
2024-05-09T01:30:43.667Z,9.86
2024-05-09T01:31:43.857Z,9.85
2024-05-09T01:32:43.928Z,9.85
2024-05-09T01:33:44.185Z,9.84
2024-05-09T01:34:44.045Z,9.84
2024-05-09T01:35:44.097Z,9.83
2024-05-09T01:36:44.176Z,9.83
2024-05-09T01:37:44.275Z,9.83
2024-05-09T01:38:44.397Z,9.82
2024-05-09T01:39:44.387Z,9.81
2024-05-09T01:40:44.482Z,9.81
2024-05-09T01:41:44.529Z,9.81
2024-05-09T01:42:44.604Z,9.80
2024-05-09T01:43:44.768Z,9.80
2024-05-09T01:44:44.779Z,9.79
2024-05-09T01:45:44.884Z,9.79
2024-05-09T01:46:45.063Z,9.78
2024-05-09T01:47:45.138Z,9.78
2024-05-09T01:48:45.283Z,9.77
2024-05-09T01:49:45.274Z,9.77
2024-05-09T01:50:45.304Z,9.76
2024-05-09T01:51:45.357Z,9.76
2024-05-09T01:52:45.474Z,9.75
2024-05-09T01:53:45.536Z,9.75
2024-05-09T01:54:45.624Z,9.75
2024-05-09T01:55:45.733Z,9.75
2024-05-09T01:56:45.799Z,9.75
2024-05-09T01:57:45.864Z,9.74
2024-05-09T01:58:45.979Z,9.74
2024-05-09T01:59:46.017Z,9.74
2024-05-09T02:00:46.139Z,9.74
2024-05-09T02:01:56.498Z,9.74
2024-05-09T02:02:46.454Z,9.73
2024-05-09T02:03:46.626Z,9.72
2024-05-09T02:04:46.657Z,9.72
2024-05-09T02:05:47.387Z,9.72
2024-05-09T02:06:46.614Z,9.71
2024-05-09T02:07:46.746Z,9.71
2024-05-09T02:08:46.830Z,9.71
2024-05-09T02:09:46.856Z,9.70
2024-05-09T02:10:47.787Z,9.70
2024-05-09T02:11:47.064Z,9.70
2024-05-09T02:12:47.104Z,9.70
2024-05-09T02:13:47.202Z,9.69
2024-05-09T02:14:47.276Z,9.69
2024-05-09T02:15:47.344Z,9.68
2024-05-09T02:16:47.466Z,9.67
2024-05-09T02:17:47.827Z,9.67
2024-05-09T02:18:47.683Z,9.66
2024-05-09T02:19:47.671Z,9.65
2024-05-09T02:20:47.784Z,9.64
2024-05-09T02:21:47.807Z,9.61
2024-05-09T02:22:47.956Z,9.58
2024-05-09T02:23:47.969Z,9.53
2024-05-09T02:24:48.100Z,9.48
2024-05-09T02:25:48.221Z,9.42
2024-05-09T02:26:48.220Z,9.35
2024-05-09T02:27:48.305Z,9.29
2024-05-09T02:28:48.446Z,9.23
2024-05-09T02:29:48.439Z,9.17
2024-05-09T02:30:48.563Z,9.11
2024-05-09T02:31:48.689Z,9.06
2024-05-09T02:32:48.927Z,9.01
2024-05-09T02:33:49.287Z,8.96
2024-05-09T02:34:48.927Z,8.92
2024-05-09T02:35:48.909Z,8.87
2024-05-09T02:36:49.007Z,8.83
2024-05-09T02:37:49.112Z,8.78
2024-05-09T02:38:49.141Z,8.73
2024-05-09T02:39:49.223Z,8.68
2024-05-09T02:40:49.365Z,8.63
2024-05-09T02:41:49.371Z,8.58
2024-05-09T02:42:49.443Z,8.54
2024-05-09T02:43:49.539Z,8.50
2024-05-09T02:44:49.608Z,8.47
2024-05-09T02:45:49.716Z,8.44
2024-05-09T02:46:49.806Z,8.41
2024-05-09T02:47:50.019Z,8.38
2024-05-09T02:48:50.029Z,8.36
2024-05-09T02:49:50.064Z,8.33
2024-05-09T02:50:50.186Z,8.30
2024-05-09T02:51:50.150Z,8.27
2024-05-09T02:52:50.323Z,8.24
2024-05-09T02:53:50.366Z,8.21
2024-05-09T02:54:50.408Z,8.17
2024-05-09T02:55:50.547Z,8.13
2024-05-09T02:56:50.543Z,8.08
2024-05-09T02:57:50.644Z,8.04
2024-05-09T02:58:50.729Z,7.99
2024-05-09T02:59:50.822Z,7.95
2024-05-09T03:00:50.948Z,7.92
2024-05-09T03:01:51.010Z,7.88
2024-05-09T03:02:51.169Z,7.85
2024-05-09T03:03:51.655Z,7.82
2024-05-09T03:04:51.358Z,7.80
2024-05-09T03:05:51.302Z,7.77
2024-05-09T03:06:51.341Z,7.74
2024-05-09T03:07:51.439Z,7.72
2024-05-09T03:08:51.487Z,7.69
2024-05-09T03:09:51.590Z,7.66
2024-05-09T03:10:51.687Z,7.64
2024-05-09T03:11:51.855Z,7.61
2024-05-09T03:12:51.825Z,7.59
2024-05-09T03:13:51.936Z,7.57
2024-05-09T03:14:51.970Z,7.56
2024-05-09T03:15:52.055Z,7.54
2024-05-09T03:16:52.145Z,7.53
2024-05-09T03:17:52.451Z,7.52
2024-05-09T03:18:52.427Z,7.51
2024-05-09T03:19:52.421Z,7.50
2024-05-09T03:20:52.587Z,7.50
2024-05-09T03:21:52.540Z,7.49
2024-05-09T03:22:56.317Z,7.47
2024-05-09T03:23:52.731Z,7.46
2024-05-09T03:24:52.782Z,7.44
2024-05-09T03:25:52.866Z,7.43
2024-05-09T03:26:52.919Z,7.42
2024-05-09T03:27:53.019Z,7.41
2024-05-09T03:28:53.165Z,7.41
2024-05-09T03:29:53.190Z,7.40
2024-05-09T03:30:53.257Z,7.40
2024-05-09T03:31:53.409Z,7.40
2024-05-09T03:32:53.574Z,7.40
2024-05-09T03:33:53.652Z,7.40
2024-05-09T03:34:53.610Z,7.39
2024-05-09T03:35:53.676Z,7.38
2024-05-09T03:36:53.744Z,7.36
2024-05-09T03:37:53.893Z,7.33
2024-05-09T03:38:53.898Z,7.31
2024-05-09T03:39:53.983Z,7.29
2024-05-09T03:40:54.077Z,7.27
2024-05-09T03:41:54.186Z,7.25
2024-05-09T03:42:54.242Z,7.24
2024-05-09T03:43:54.355Z,7.24
2024-05-09T03:44:54.383Z,7.24
2024-05-09T03:45:54.464Z,7.24
2024-05-09T03:46:54.645Z,7.24
2024-05-09T03:47:54.966Z,7.25
2024-05-09T03:48:54.756Z,7.26
2024-05-09T03:49:54.812Z,7.30
2024-05-09T03:50:54.941Z,7.34
2024-05-09T03:51:54.958Z,7.40
2024-05-09T03:52:55.047Z,7.46
2024-05-09T03:53:55.128Z,7.52
2024-05-09T03:54:55.184Z,7.58
2024-05-09T03:55:55.273Z,7.65
2024-05-09T03:56:55.347Z,7.70
2024-05-09T03:57:55.426Z,7.75
2024-05-09T03:58:55.499Z,7.80
2024-05-09T03:59:55.570Z,7.83
2024-05-09T04:00:55.714Z,7.86
2024-05-09T04:01:55.807Z,7.87
2024-05-09T04:02:55.991Z,7.89
2024-05-09T04:03:56.049Z,7.92
2024-05-09T04:04:56.070Z,7.95
2024-05-09T04:05:56.077Z,7.98
2024-05-09T04:06:56.191Z,8.02
2024-05-09T04:07:56.350Z,8.06
2024-05-09T04:08:56.362Z,8.10
2024-05-09T04:09:56.428Z,8.14
2024-05-09T04:10:56.528Z,8.17
2024-05-09T04:11:56.732Z,8.20
2024-05-09T04:12:56.661Z,8.23
2024-05-09T04:13:56.796Z,8.26
2024-05-09T04:14:56.827Z,8.29
2024-05-09T04:15:56.896Z,8.31
2024-05-09T04:16:57.050Z,8.33
2024-05-09T04:17:57.328Z,8.35
2024-05-09T04:18:57.226Z,8.37
2024-05-09T04:19:57.259Z,8.39
2024-05-09T04:20:57.324Z,8.40
2024-05-09T04:21:57.392Z,8.42
2024-05-09T04:22:57.489Z,8.43
2024-05-09T04:23:57.588Z,8.45
2024-05-09T04:24:57.639Z,8.46
2024-05-09T04:25:57.755Z,8.47
2024-05-09T04:26:57.801Z,8.48
2024-05-09T04:27:58.009Z,8.49
2024-05-09T04:28:58.018Z,8.51
2024-05-09T04:29:58.110Z,8.52
2024-05-09T04:30:58.162Z,8.53
2024-05-09T04:31:58.385Z,8.54
2024-05-09T04:32:58.433Z,8.56
2024-05-09T04:33:58.645Z,8.58
2024-05-09T04:34:58.531Z,8.60
2024-05-09T04:35:58.556Z,8.62
2024-05-09T04:36:58.632Z,8.64
2024-05-09T04:37:58.713Z,8.67
2024-05-09T04:38:58.805Z,8.69
2024-05-09T04:39:58.876Z,8.72
2024-05-09T04:40:59.038Z,8.75
2024-05-09T04:41:59.081Z,8.78
2024-05-09T04:42:59.118Z,8.81
2024-05-09T04:43:59.246Z,8.83
2024-05-09T04:44:59.252Z,8.86
2024-05-09T04:45:59.352Z,8.89
2024-05-09T04:46:59.435Z,8.91
2024-05-09T04:47:59.908Z,8.93
2024-05-09T04:48:59.625Z,8.96
2024-05-09T04:49:59.670Z,8.99
2024-05-09T04:50:59.764Z,9.01
2024-05-09T04:51:59.824Z,9.04
2024-05-09T04:52:59.910Z,9.08
2024-05-09T04:53:59.988Z,9.12
2024-05-09T04:55:00.079Z,9.16
2024-05-09T04:56:00.179Z,9.21
2024-05-09T04:57:00.271Z,9.26
2024-05-09T04:58:00.393Z,9.31
2024-05-09T04:59:00.412Z,9.35
2024-05-09T05:00:00.491Z,9.40
2024-05-09T05:01:00.653Z,9.44
2024-05-09T05:02:00.791Z,9.47
2024-05-09T05:03:00.858Z,9.50
2024-05-09T05:04:00.990Z,9.53
2024-05-09T05:05:01.006Z,9.56
2024-05-09T05:06:01.094Z,9.59
2024-05-09T05:07:02.889Z,9.62
2024-05-09T05:08:01.258Z,9.66
2024-05-09T05:09:01.212Z,9.70
2024-05-09T05:10:01.281Z,9.74
2024-05-09T05:11:01.441Z,9.78
2024-05-09T05:12:01.557Z,9.83
2024-05-09T05:13:01.568Z,9.88
2024-05-09T05:14:01.639Z,9.93
2024-05-09T05:15:01.683Z,9.99
2024-05-09T05:16:01.763Z,10.05
2024-05-09T05:17:01.892Z,10.11
2024-05-09T05:18:02.177Z,10.18
2024-05-09T05:19:02.097Z,10.26
2024-05-09T05:20:02.415Z,10.35
2024-05-09T05:21:02.222Z,10.44
2024-05-09T05:22:02.293Z,10.55
2024-05-09T05:23:02.442Z,10.66
2024-05-09T05:24:02.471Z,10.78
2024-05-09T05:25:02.544Z,10.91
2024-05-09T05:26:02.736Z,11.04
2024-05-09T05:27:02.705Z,11.17
2024-05-09T05:28:02.797Z,11.30
2024-05-09T05:29:02.988Z,11.43
2024-05-09T05:30:03.547Z,11.56
2024-05-09T05:31:03.017Z,11.68
2024-05-09T05:32:03.228Z,11.81
2024-05-09T05:33:03.257Z,11.95
2024-05-09T05:34:03.348Z,12.08
2024-05-09T05:35:03.393Z,12.21
2024-05-09T05:36:03.397Z,12.33
2024-05-09T05:37:03.485Z,12.44
2024-05-09T05:38:03.581Z,12.55
2024-05-09T05:39:03.639Z,12.64
2024-05-09T05:40:04.375Z,12.73
2024-05-09T05:41:03.848Z,12.83
2024-05-09T05:42:03.916Z,12.94
2024-05-09T05:43:04.003Z,13.05
2024-05-09T05:44:04.119Z,13.18
2024-05-09T05:45:06.680Z,13.30
2024-05-09T05:46:04.210Z,13.43
2024-05-09T05:47:04.421Z,13.58
2024-05-09T05:48:04.792Z,13.75
2024-05-09T05:49:04.558Z,13.93
2024-05-09T05:50:09.266Z,14.12
2024-05-09T05:51:04.860Z,14.30
2024-05-09T05:52:04.725Z,14.46
2024-05-09T05:53:04.861Z,14.59
2024-05-09T05:54:04.870Z,14.70
2024-05-09T05:55:04.968Z,14.82
2024-05-09T05:56:05.141Z,14.96
2024-05-09T05:57:05.102Z,15.11
2024-05-09T05:58:05.194Z,15.27
2024-05-09T05:59:05.309Z,15.45
2024-05-09T06:00:09.442Z,15.63
2024-05-09T06:01:05.496Z,15.81
2024-05-09T06:02:05.633Z,16.02
2024-05-09T06:03:05.926Z,16.26
2024-05-09T06:04:05.760Z,16.52
2024-05-09T06:05:05.923Z,16.79
2024-05-09T06:06:06.015Z,17.06
2024-05-09T06:07:05.963Z,17.34
2024-05-09T06:08:06.030Z,17.61
2024-05-09T06:09:06.069Z,17.88
2024-05-09T06:10:09.229Z,18.15
2024-05-09T06:11:06.331Z,18.41
2024-05-09T06:12:06.377Z,18.66
2024-05-09T06:13:06.387Z,18.92
2024-05-09T06:14:06.631Z,19.16
2024-05-09T06:15:06.522Z,19.38
2024-05-09T06:16:06.602Z,19.61
2024-05-09T06:17:06.755Z,19.81
2024-05-09T06:18:06.959Z,20.01
2024-05-09T06:19:06.933Z,20.20
2024-05-09T06:20:13.443Z,20.39
2024-05-09T06:21:07.021Z,20.60
2024-05-09T06:22:07.082Z,20.84
2024-05-09T06:23:07.315Z,21.10
2024-05-09T06:24:07.228Z,21.38
2024-05-09T06:25:07.380Z,21.65
2024-05-09T06:26:07.486Z,21.90
2024-05-09T06:27:07.436Z,22.14
2024-05-09T06:28:07.547Z,22.38
2024-05-09T06:29:07.655Z,22.63
2024-05-09T06:30:09.972Z,22.88
2024-05-09T06:31:08.672Z,23.14
2024-05-09T06:32:07.888Z,23.39
2024-05-09T06:33:08.690Z,23.64
2024-05-09T06:34:08.145Z,23.88
2024-05-09T06:35:08.074Z,24.12
2024-05-09T06:36:08.131Z,24.38
2024-05-09T06:37:08.212Z,24.65
2024-05-09T06:38:08.318Z,24.94
2024-05-09T06:39:08.399Z,25.23
2024-05-09T06:40:09.941Z,25.49
2024-05-09T06:41:08.595Z,25.73
2024-05-09T06:42:08.575Z,25.97
2024-05-09T06:43:08.656Z,26.21
2024-05-09T06:44:08.755Z,26.46
2024-05-09T06:45:08.805Z,26.73
2024-05-09T06:46:08.889Z,27.01
2024-05-09T06:47:09.112Z,27.31
2024-05-09T06:48:09.580Z,27.61
2024-05-09T06:49:09.305Z,27.92
2024-05-09T06:50:19.569Z,28.24
2024-05-09T06:51:09.455Z,28.57
2024-05-09T06:52:09.459Z,28.92
2024-05-09T06:53:09.823Z,29.28
2024-05-09T06:54:09.602Z,29.61
2024-05-09T06:55:09.677Z,29.90
2024-05-09T06:56:09.794Z,30.17
2024-05-09T06:57:09.838Z,30.43
2024-05-09T06:58:10.016Z,30.70
2024-05-09T06:59:10.004Z,30.98
2024-05-09T07:00:15.529Z,31.25
2024-05-09T07:01:10.190Z,31.52
2024-05-09T07:02:10.372Z,31.77
2024-05-09T07:03:11.589Z,32.01
2024-05-09T07:04:10.538Z,32.23
2024-05-09T07:05:10.607Z,32.45
2024-05-09T07:06:10.706Z,32.67
2024-05-09T07:07:10.668Z,32.91
2024-05-09T07:08:10.902Z,33.15
2024-05-09T07:09:10.822Z,33.37
2024-05-09T07:10:17.776Z,33.59
2024-05-09T07:11:11.010Z,33.84
2024-05-09T07:12:11.108Z,34.11
2024-05-09T07:13:11.134Z,34.43
2024-05-09T07:14:11.307Z,34.77
2024-05-09T07:15:11.270Z,35.15
2024-05-09T07:16:11.353Z,35.55
2024-05-09T07:17:11.530Z,35.96
2024-05-09T07:18:11.792Z,36.38
2024-05-09T07:19:12.034Z,36.76
2024-05-09T07:20:19.477Z,37.08
2024-05-09T07:21:11.900Z,37.34
2024-05-09T07:22:11.820Z,37.52
2024-05-09T07:23:12.092Z,37.67
2024-05-09T07:24:12.036Z,37.83
2024-05-09T07:25:12.062Z,38.00
2024-05-09T07:26:12.157Z,38.19
2024-05-09T07:27:12.215Z,38.42
2024-05-09T07:28:12.334Z,38.72
2024-05-09T07:29:12.415Z,39.07
2024-05-09T07:30:16.682Z,39.42
2024-05-09T07:31:12.544Z,39.77
2024-05-09T07:32:12.672Z,40.13
2024-05-09T07:33:12.799Z,40.50
2024-05-09T07:34:12.984Z,40.88
2024-05-09T07:35:12.898Z,41.27
2024-05-09T07:36:12.927Z,41.66
2024-05-09T07:37:12.988Z,42.01
2024-05-09T07:38:13.139Z,42.32
2024-05-09T07:39:13.175Z,42.63
2024-05-09T07:40:21.275Z,42.92
2024-05-09T07:41:13.418Z,43.19
2024-05-09T07:42:13.409Z,43.42
2024-05-09T07:43:13.542Z,43.57
2024-05-09T07:44:13.672Z,43.63
2024-05-09T07:45:29.908Z,43.69
2024-05-09T07:48:28.152Z,43.97
2024-05-09T07:52:22.563Z,44.17
2024-05-09T07:53:42.080Z,44.46
2024-05-09T07:53:53.414Z,45.02
2024-05-09T07:54:45.579Z,45.68
2024-05-09T07:55:45.583Z,46.20
2024-05-09T07:56:45.741Z,46.59
2024-05-09T07:57:45.676Z,46.91
2024-05-09T07:58:45.740Z,47.21
2024-05-09T07:59:45.828Z,47.51
2024-05-09T08:00:46.000Z,47.81
2024-05-09T08:01:46.212Z,48.09
2024-05-09T08:02:46.108Z,48.36
2024-05-09T08:03:46.451Z,48.58
2024-05-09T08:04:46.308Z,48.77
2024-05-09T08:05:46.376Z,48.97
2024-05-09T08:06:46.419Z,49.21
2024-05-09T08:07:46.472Z,49.49
2024-05-09T08:08:46.543Z,49.79
2024-05-09T08:09:46.707Z,50.10
2024-05-09T08:10:46.780Z,50.35
2024-05-09T08:11:46.891Z,50.50
2024-05-09T08:12:47.045Z,50.57
2024-05-09T08:13:47.001Z,50.63
2024-05-09T08:14:47.095Z,50.69
2024-05-09T08:15:47.201Z,50.74
2024-05-09T08:16:47.274Z,50.79
2024-05-09T08:17:47.419Z,50.84
2024-05-09T08:18:47.516Z,50.90
2024-05-09T08:19:47.535Z,50.95
2024-05-09T08:20:47.620Z,50.99
2024-05-09T08:21:47.736Z,50.98
2024-05-09T08:22:47.762Z,50.91
2024-05-09T08:23:47.862Z,50.81
2024-05-09T08:24:47.981Z,50.67
2024-05-09T08:25:48.088Z,50.49
2024-05-09T08:26:48.067Z,50.27
2024-05-09T08:27:48.180Z,50.09
2024-05-09T08:28:48.208Z,50.01
2024-05-09T08:29:48.311Z,50.03
2024-05-09T08:30:48.735Z,50.11
2024-05-09T08:31:48.585Z,50.18
2024-05-09T08:32:48.633Z,50.28
2024-05-09T08:33:48.942Z,50.45
2024-05-09T08:34:48.774Z,50.70
2024-05-09T08:35:48.812Z,51.05
2024-05-09T08:36:48.933Z,51.45
2024-05-09T08:37:49.001Z,51.84
2024-05-09T08:38:49.027Z,52.19
2024-05-09T08:39:49.163Z,52.51
2024-05-09T08:40:49.398Z,52.77
2024-05-09T08:41:49.349Z,52.95
2024-05-09T08:42:49.458Z,53.04
2024-05-09T08:43:49.479Z,53.04
2024-05-09T08:44:49.654Z,52.99
2024-05-09T08:45:49.749Z,52.88
2024-05-09T08:46:49.700Z,52.76
2024-05-09T08:47:49.865Z,52.65
2024-05-09T08:48:50.211Z,52.60
2024-05-09T08:49:49.990Z,52.62
2024-05-09T08:50:50.111Z,52.64
2024-05-09T08:51:50.172Z,52.65
2024-05-09T08:52:50.187Z,52.68
2024-05-09T08:53:50.266Z,52.74
2024-05-09T08:54:50.387Z,52.89
2024-05-09T08:55:50.458Z,53.13
2024-05-09T08:56:50.506Z,53.42
2024-05-09T08:57:50.618Z,53.71
2024-05-09T08:58:50.694Z,53.95
2024-05-09T08:59:50.880Z,54.16
2024-05-09T09:00:50.958Z,54.38
2024-05-09T09:01:51.011Z,54.58
2024-05-09T09:02:51.105Z,54.70
2024-05-09T09:03:51.292Z,54.71
2024-05-09T09:04:51.417Z,54.60
2024-05-09T09:05:51.343Z,54.42
2024-05-09T09:06:53.254Z,54.21
2024-05-09T09:07:51.682Z,54.04
2024-05-09T09:08:51.550Z,53.89
2024-05-09T09:09:51.695Z,53.76
2024-05-09T09:10:51.751Z,53.64
2024-05-09T09:11:51.832Z,53.57
2024-05-09T09:12:51.972Z,53.55
2024-05-09T09:13:51.961Z,53.49
2024-05-09T09:14:52.039Z,53.38
2024-05-09T09:15:52.251Z,53.29
2024-05-09T09:16:52.219Z,53.20
2024-05-09T09:17:52.482Z,53.15
2024-05-09T09:18:52.656Z,53.13
2024-05-09T09:19:52.633Z,53.13
2024-05-09T09:20:52.615Z,53.11
2024-05-09T09:21:52.726Z,53.13
2024-05-09T09:22:52.738Z,53.20
2024-05-09T09:23:52.860Z,53.28
2024-05-09T09:24:52.977Z,53.32
2024-05-09T09:25:52.989Z,53.32
2024-05-09T09:26:53.077Z,53.23
2024-05-09T09:27:53.187Z,53.05
2024-05-09T09:28:53.299Z,52.77
2024-05-09T09:29:53.342Z,52.44
2024-05-09T09:30:53.527Z,52.14
2024-05-09T09:31:53.501Z,51.95
2024-05-09T09:32:53.671Z,51.88
2024-05-09T09:33:53.954Z,51.90
2024-05-09T09:34:53.787Z,52.01
2024-05-09T09:35:53.853Z,52.21
2024-05-09T09:36:53.945Z,52.47
2024-05-09T09:37:54.019Z,52.70
2024-05-09T09:38:54.100Z,52.83
2024-05-09T09:39:54.216Z,52.85
2024-05-09T09:40:54.413Z,52.80
2024-05-09T09:41:54.333Z,52.70
2024-05-09T09:42:54.460Z,52.55
2024-05-09T09:43:54.533Z,52.38
2024-05-09T09:45:02.052Z,52.21
2024-05-09T09:45:54.722Z,52.06
2024-05-09T09:46:54.915Z,52.01
2024-05-09T09:47:54.916Z,52.08
2024-05-09T09:48:55.025Z,52.19
2024-05-09T09:49:55.028Z,52.24
2024-05-09T09:50:55.086Z,52.25
2024-05-09T09:51:55.275Z,52.23
2024-05-09T09:52:55.217Z,52.23
2024-05-09T09:53:55.296Z,52.29
2024-05-09T09:54:55.392Z,52.45
2024-05-09T09:55:55.516Z,52.68
2024-05-09T09:56:55.590Z,52.98
2024-05-09T09:57:55.877Z,53.29
2024-05-09T09:58:55.773Z,53.63
2024-05-09T09:59:55.834Z,53.93
2024-05-09T10:00:55.983Z,54.04
2024-05-09T10:01:56.128Z,53.92
2024-05-09T10:02:56.252Z,53.64
2024-05-09T10:03:56.325Z,53.22
2024-05-09T10:04:56.372Z,52.79
2024-05-09T10:05:56.422Z,51.96
2024-05-09T10:06:56.483Z,50.59
2024-05-09T10:07:56.567Z,49.54
2024-05-09T10:08:56.636Z,49.18
2024-05-09T10:09:56.766Z,49.20
2024-05-09T10:10:57.016Z,49.32
2024-05-09T10:12:00.235Z,49.41
2024-05-09T10:12:57.042Z,49.47
2024-05-09T10:13:57.131Z,49.56
2024-05-09T10:14:57.183Z,49.71
2024-05-09T10:15:57.293Z,49.86
2024-05-09T10:16:57.378Z,49.97
2024-05-09T10:17:57.472Z,49.54
2024-05-09T10:18:57.743Z,48.33
2024-05-09T10:19:57.634Z,47.26
2024-05-09T10:20:58.074Z,47.00
2024-05-09T10:21:57.830Z,47.25
2024-05-09T10:22:57.866Z,47.62
2024-05-09T10:23:57.961Z,47.66
2024-05-09T10:24:58.104Z,47.46
2024-05-09T10:25:58.282Z,46.75
2024-05-09T10:26:58.209Z,45.43
2024-05-09T10:27:58.411Z,43.99
2024-05-09T10:28:58.393Z,42.70
2024-05-09T10:29:58.487Z,41.50
2024-05-09T10:30:58.593Z,40.36
2024-05-09T10:31:58.648Z,39.35
2024-05-09T10:32:58.815Z,39.05
2024-05-09T10:33:58.945Z,39.59
2024-05-09T10:34:59.078Z,40.21
2024-05-09T10:35:59.049Z,40.72
2024-05-09T10:36:59.887Z,41.39
2024-05-09T10:37:59.189Z,42.01
2024-05-09T10:38:59.286Z,42.01
2024-05-09T10:39:59.412Z,41.65
2024-05-09T10:40:59.408Z,41.72
2024-05-09T10:41:59.499Z,42.26
2024-05-09T10:43:01.903Z,42.95
2024-05-09T10:43:59.669Z,43.69
2024-05-09T10:44:59.737Z,44.42
2024-05-09T10:45:59.874Z,44.92
2024-05-09T10:46:59.975Z,44.85
2024-05-09T10:48:00.233Z,44.12
2024-05-09T10:49:03.301Z,42.90
2024-05-09T10:50:00.267Z,41.47
2024-05-09T10:51:00.206Z,40.10
2024-05-09T10:52:00.313Z,39.27
2024-05-09T10:53:00.372Z,38.73
2024-05-09T10:54:00.439Z,38.61
2024-05-09T10:55:02.287Z,39.10
2024-05-09T10:56:00.701Z,39.84
2024-05-09T10:57:00.679Z,40.60
2024-05-09T10:58:00.819Z,41.31
2024-05-09T10:59:00.849Z,41.92
2024-05-09T11:00:00.942Z,42.39
2024-05-09T11:01:04.359Z,42.72
2024-05-09T11:02:01.199Z,42.93
2024-05-09T11:03:01.257Z,43.09
2024-05-09T11:04:01.450Z,43.22
2024-05-09T11:05:01.538Z,43.34
2024-05-09T11:06:01.480Z,43.47
2024-05-09T11:07:04.585Z,43.65
2024-05-09T11:08:01.590Z,43.88
2024-05-09T11:09:01.716Z,44.11
2024-05-09T11:10:01.843Z,44.28
2024-05-09T11:11:01.936Z,44.36
2024-05-09T11:12:02.148Z,44.38
2024-05-09T11:13:02.117Z,44.37
2024-05-09T11:14:02.188Z,44.38
2024-05-09T11:15:02.254Z,44.39
2024-05-09T11:16:02.386Z,44.35
2024-05-09T11:17:02.495Z,44.27
2024-05-09T11:18:02.574Z,44.19
2024-05-09T11:19:02.698Z,44.13
2024-05-09T11:20:06.222Z,44.16
2024-05-09T11:21:02.736Z,44.28
2024-05-09T11:22:02.869Z,44.45
2024-05-09T11:23:02.885Z,44.60
2024-05-09T11:24:02.978Z,44.72
2024-05-09T11:25:03.252Z,44.83
2024-05-09T11:26:03.263Z,44.94
2024-05-09T11:27:03.202Z,45.05
2024-05-09T11:28:03.428Z,45.09
2024-05-09T11:29:03.393Z,45.08
2024-05-09T11:30:04.381Z,45.03
2024-05-09T11:31:03.731Z,45.01
2024-05-09T11:32:03.706Z,45.00
2024-05-09T11:33:03.777Z,44.97
2024-05-09T11:34:03.939Z,44.92
2024-05-09T11:35:03.927Z,44.82
2024-05-09T11:36:04.100Z,44.66
2024-05-09T11:37:04.133Z,44.50
2024-05-09T11:38:04.160Z,44.41
2024-05-09T11:39:04.244Z,44.38
2024-05-09T11:40:07.098Z,44.32
2024-05-09T11:41:04.437Z,44.11
2024-05-09T11:42:04.486Z,43.60
2024-05-09T11:43:04.698Z,42.98
2024-05-09T11:44:04.650Z,42.55
2024-05-09T11:45:04.750Z,42.35
2024-05-09T11:46:04.967Z,42.26
2024-05-09T11:47:05.048Z,42.21
2024-05-09T11:48:05.093Z,41.97
2024-05-09T11:49:05.222Z,41.48
2024-05-09T11:50:07.899Z,40.94
2024-05-09T11:51:05.230Z,40.58
2024-05-09T11:52:05.339Z,40.27
2024-05-09T11:53:05.396Z,39.88
2024-05-09T11:54:05.461Z,39.34
2024-05-09T11:55:05.615Z,38.63
2024-05-09T11:56:05.628Z,37.79
2024-05-09T11:57:05.688Z,36.90
2024-05-09T11:58:05.863Z,36.02
2024-05-09T11:59:05.904Z,35.22
2024-05-09T12:00:07.369Z,34.76
2024-05-09T12:01:06.128Z,34.55
2024-05-09T12:02:17.330Z,34.40
2024-05-09T12:03:06.346Z,34.23
2024-05-09T12:04:06.561Z,33.99
2024-05-09T12:05:06.486Z,33.68
2024-05-09T12:06:06.439Z,33.30
2024-05-09T12:07:08.438Z,32.89
2024-05-09T12:08:06.581Z,32.44
2024-05-09T12:09:06.650Z,31.96
2024-05-09T12:10:11.859Z,31.49
2024-05-09T12:11:06.846Z,31.07
2024-05-09T12:12:06.944Z,30.71
2024-05-09T12:13:07.654Z,30.42
2024-05-09T12:14:07.115Z,30.39
2024-05-09T12:15:07.112Z,30.71
2024-05-09T12:16:07.363Z,31.30
2024-05-09T12:17:07.376Z,32.06
2024-05-09T12:18:08.320Z,32.84
2024-05-09T12:19:07.541Z,33.61
2024-05-09T12:20:14.077Z,34.38
2024-05-09T12:21:07.640Z,35.18
2024-05-09T12:22:07.829Z,36.00
2024-05-09T12:23:09.296Z,36.80
2024-05-09T12:24:07.939Z,37.51
2024-05-09T12:25:08.102Z,38.02
2024-05-09T12:26:08.087Z,38.40
2024-05-09T12:27:08.167Z,38.75
2024-05-09T12:28:08.501Z,39.09
2024-05-09T12:29:08.329Z,39.42
2024-05-09T12:30:11.377Z,39.72
2024-05-09T12:31:08.545Z,39.91
2024-05-09T12:32:08.625Z,39.95
2024-05-09T12:33:09.271Z,39.91
2024-05-09T12:34:08.868Z,39.87
2024-05-09T12:35:08.798Z,39.90
2024-05-09T12:36:08.903Z,40.04
2024-05-09T12:37:08.971Z,40.26
2024-05-09T12:38:09.053Z,40.53
2024-05-09T12:39:09.116Z,40.80
2024-05-09T12:40:18.445Z,41.00
2024-05-09T12:41:09.322Z,40.97
2024-05-09T12:42:11.026Z,40.70
2024-05-09T12:43:10.650Z,40.25
2024-05-09T12:44:09.536Z,39.65
2024-05-09T12:45:09.627Z,39.05
2024-05-09T12:46:09.722Z,38.59
2024-05-09T12:47:09.819Z,38.14
2024-05-09T12:48:09.973Z,37.57
2024-05-09T12:49:10.206Z,36.91
2024-05-09T12:50:18.962Z,36.20
2024-05-09T12:51:10.171Z,35.49
2024-05-09T12:52:10.360Z,34.89
2024-05-09T12:53:10.367Z,34.55
2024-05-09T12:54:10.393Z,34.53
2024-05-09T12:55:10.639Z,34.74
